sensor_id;sensor_type;location;lat;lon;timestamp;pressure;altitude;pressure_sealevel;temperature;humidity
75991;BME280;64673;52.276;10.560;2022-12-18T00:01:37;102228.44;;;-8.66;90.19
75991;BME280;64673;52.276;10.560;2022-12-18T00:04:05;102233.88;;;-8.82;90.86
75991;BME280;64673;52.276;10.560;2022-12-18T00:06:32;102243.06;;;-8.64;90.66
75991;BME280;64673;52.276;10.560;2022-12-18T00:09:01;102243.88;;;-8.89;90.52
75991;BME280;64673;52.276;10.560;2022-12-18T00:11:28;102256.38;;;-8.79;89.78
75991;BME280;64673;52.276;10.560;2022-12-18T00:13:56;102250.63;;;-8.59;89.87
75991;BME280;64673;52.276;10.560;2022-12-18T00:16:23;102254.06;;;-8.71;89.56
75991;BME280;64673;52.276;10.560;2022-12-18T00:18:51;102259.59;;;-8.76;89.81
75991;BME280;64673;52.276;10.560;2022-12-18T00:21:18;102251.44;;;-8.71;90.54
75991;BME280;64673;52.276;10.560;2022-12-18T00:23:44;102256.56;;;-8.82;90.19
75991;BME280;64673;52.276;10.560;2022-12-18T00:26:30;102262.69;;;-8.96;90.07
75991;BME280;64673;52.276;10.560;2022-12-18T00:29:01;102261.34;;;-9.02;90.66
75991;BME280;64673;52.276;10.560;2022-12-18T00:31:27;102256.81;;;-9.00;90.33
75991;BME280;64673;52.276;10.560;2022-12-18T00:33:56;102262.66;;;-9.09;90.88
75991;BME280;64673;52.276;10.560;2022-12-18T00:36:33;102258.72;;;-9.02;90.53
75991;BME280;64673;52.276;10.560;2022-12-18T00:39:00;102254.75;;;-8.95;90.63
75991;BME280;64673;52.276;10.560;2022-12-18T00:41:26;102261.13;;;-8.99;90.71
75991;BME280;64673;52.276;10.560;2022-12-18T00:44:13;102256.25;;;-8.91;89.88
75991;BME280;64673;52.276;10.560;2022-12-18T00:46:40;102259.19;;;-8.82;90.15
75991;BME280;64673;52.276;10.560;2022-12-18T00:49:05;102264.81;;;-8.76;89.68
75991;BME280;64673;52.276;10.560;2022-12-18T00:51:31;102266.72;;;-8.65;90.01
75991;BME280;64673;52.276;10.560;2022-12-18T00:53:56;102274.66;;;-8.67;88.81
75991;BME280;64673;52.276;10.560;2022-12-18T00:56:22;102270.69;;;-8.72;89.61
75991;BME280;64673;52.276;10.560;2022-12-18T00:58:48;102276.31;;;-8.78;90.12
75991;BME280;64673;52.276;10.560;2022-12-18T01:01:14;102274.06;;;-8.70;89.60
75991;BME280;64673;52.276;10.560;2022-12-18T01:03:39;102282.50;;;-8.67;88.90
75991;BME280;64673;52.276;10.560;2022-12-18T01:06:09;102284.28;;;-8.80;88.97
75991;BME280;64673;52.276;10.560;2022-12-18T01:08:35;102293.03;;;-8.94;90.22
75991;BME280;64673;52.276;10.560;2022-12-18T01:11:06;102293.41;;;-9.00;89.47
75991;BME280;64673;52.276;10.560;2022-12-18T01:13:32;102286.13;;;-8.95;89.83
75991;BME280;64673;52.276;10.560;2022-12-18T01:15:57;102295.41;;;-9.03;89.33
75991;BME280;64673;52.276;10.560;2022-12-18T01:18:22;102294.28;;;-9.26;89.63
75991;BME280;64673;52.276;10.560;2022-12-18T01:20:47;102285.72;;;-9.28;89.18
75991;BME280;64673;52.276;10.560;2022-12-18T01:23:13;102286.72;;;-9.31;89.98
75991;BME280;64673;52.276;10.560;2022-12-18T01:25:38;102298.03;;;-9.30;89.39
75991;BME280;64673;52.276;10.560;2022-12-18T01:28:03;102311.00;;;-9.29;89.76
75991;BME280;64673;52.276;10.560;2022-12-18T01:30:29;102307.94;;;-9.35;89.80
75991;BME280;64673;52.276;10.560;2022-12-18T01:32:54;102309.75;;;-9.50;89.52
75991;BME280;64673;52.276;10.560;2022-12-18T01:35:19;102303.56;;;-9.35;89.56
75991;BME280;64673;52.276;10.560;2022-12-18T01:37:45;102296.41;;;-9.18;89.90
75991;BME280;64673;52.276;10.560;2022-12-18T01:40:10;102304.19;;;-9.31;89.55
75991;BME280;64673;52.276;10.560;2022-12-18T01:42:36;102314.06;;;-9.22;89.10
75991;BME280;64673;52.276;10.560;2022-12-18T01:52:53;102300.13;;;-9.35;90.18
75991;BME280;64673;52.276;10.560;2022-12-18T01:55:24;102304.56;;;-9.23;90.18
75991;BME280;64673;52.276;10.560;2022-12-18T01:57:52;102306.84;;;-9.18;89.36
75991;BME280;64673;52.276;10.560;2022-12-18T02:00:22;102310.31;;;-9.18;89.40
75991;BME280;64673;52.276;10.560;2022-12-18T02:02:48;102319.03;;;-9.05;89.03
75991;BME280;64673;52.276;10.560;2022-12-18T02:05:17;102310.31;;;-9.18;89.23
75991;BME280;64673;52.276;10.560;2022-12-18T02:10:46;102305.88;;;-9.30;89.49
75991;BME280;64673;52.276;10.560;2022-12-18T02:13:26;102294.63;;;-9.18;88.80
75991;BME280;64673;52.276;10.560;2022-12-18T02:18:27;102296.31;;;-9.17;88.38
75991;BME280;64673;52.276;10.560;2022-12-18T02:26:43;102311.25;;;-9.19;88.92
75991;BME280;64673;52.276;10.560;2022-12-18T02:29:15;102315.78;;;-9.35;88.78
75991;BME280;64673;52.276;10.560;2022-12-18T02:31:47;102307.09;;;-9.36;89.16
75991;BME280;64673;52.276;10.560;2022-12-18T02:34:16;102303.09;;;-9.41;89.20
75991;BME280;64673;52.276;10.560;2022-12-18T02:36:43;102308.22;;;-9.67;89.82
75991;BME280;64673;52.276;10.560;2022-12-18T02:39:11;102305.03;;;-9.72;89.97
75991;BME280;64673;52.276;10.560;2022-12-18T02:41:38;102298.97;;;-9.72;90.01
75991;BME280;64673;52.276;10.560;2022-12-18T02:44:08;102310.91;;;-9.54;89.84
75991;BME280;64673;52.276;10.560;2022-12-18T02:46:49;102308.47;;;-9.57;89.31
75991;BME280;64673;52.276;10.560;2022-12-18T02:56:50;102318.44;;;-9.64;89.34
75991;BME280;64673;52.276;10.560;2022-12-18T02:59:28;102307.22;;;-9.51;89.86
75991;BME280;64673;52.276;10.560;2022-12-18T03:04:48;102311.06;;;-9.43;89.26
75991;BME280;64673;52.276;10.560;2022-12-18T03:07:22;102304.72;;;-9.53;89.35
75991;BME280;64673;52.276;10.560;2022-12-18T03:09:51;102305.84;;;-9.43;88.91
75991;BME280;64673;52.276;10.560;2022-12-18T03:12:35;102294.81;;;-9.48;89.60
75991;BME280;64673;52.276;10.560;2022-12-18T03:17:36;102306.84;;;-9.45;89.55
75991;BME280;64673;52.276;10.560;2022-12-18T03:20:12;102316.56;;;-9.62;89.98
75991;BME280;64673;52.276;10.560;2022-12-18T03:22:42;102314.53;;;-9.71;89.91
75991;BME280;64673;52.276;10.560;2022-12-18T03:25:11;102305.13;;;-9.73;89.72
75991;BME280;64673;52.276;10.560;2022-12-18T03:27:43;102309.91;;;-9.80;90.10
75991;BME280;64673;52.276;10.560;2022-12-18T03:30:12;102309.25;;;-9.83;90.24
75991;BME280;64673;52.276;10.560;2022-12-18T03:32:53;102314.75;;;-9.88;90.51
75991;BME280;64673;52.276;10.560;2022-12-18T03:35:28;102303.34;;;-9.73;89.69
75991;BME280;64673;52.276;10.560;2022-12-18T03:37:54;102299.88;;;-9.59;89.80
75991;BME280;64673;52.276;10.560;2022-12-18T03:40:28;102293.22;;;-9.77;89.83
75991;BME280;64673;52.276;10.560;2022-12-18T03:43:10;102291.13;;;-9.72;89.13
75991;BME280;64673;52.276;10.560;2022-12-18T03:45:42;102301.22;;;-9.80;89.39
75991;BME280;64673;52.276;10.560;2022-12-18T03:51:24;102296.09;;;-9.82;89.75
75991;BME280;64673;52.276;10.560;2022-12-18T03:53:58;102295.84;;;-9.91;89.29
75991;BME280;64673;52.276;10.560;2022-12-18T03:56:26;102290.97;;;-9.83;89.25
75991;BME280;64673;52.276;10.560;2022-12-18T03:58:55;102293.41;;;-9.94;89.71
75991;BME280;64673;52.276;10.560;2022-12-18T04:01:25;102300.22;;;-10.06;89.46
75991;BME280;64673;52.276;10.560;2022-12-18T04:03:55;102298.56;;;-10.07;89.70
75991;BME280;64673;52.276;10.560;2022-12-18T04:06:22;102296.19;;;-9.83;89.12
75991;BME280;64673;52.276;10.560;2022-12-18T04:08:48;102294.06;;;-9.91;90.03
75991;BME280;64673;52.276;10.560;2022-12-18T04:11:15;102296.84;;;-9.94;90.05
75991;BME280;64673;52.276;10.560;2022-12-18T04:13:42;102284.19;;;-10.00;89.25
75991;BME280;64673;52.276;10.560;2022-12-18T04:16:07;102286.34;;;-10.07;88.73
75991;BME280;64673;52.276;10.560;2022-12-18T04:18:35;102285.09;;;-10.28;89.79
75991;BME280;64673;52.276;10.560;2022-12-18T04:21:00;102281.22;;;-10.08;89.88
75991;BME280;64673;52.276;10.560;2022-12-18T04:23:26;102293.97;;;-10.04;89.57
75991;BME280;64673;52.276;10.560;2022-12-18T04:25:52;102294.38;;;-10.10;88.98
75991;BME280;64673;52.276;10.560;2022-12-18T04:28:17;102299.94;;;-10.16;88.91
75991;BME280;64673;52.276;10.560;2022-12-18T04:30:42;102291.84;;;-10.11;89.48
75991;BME280;64673;52.276;10.560;2022-12-18T04:33:10;102302.66;;;-10.17;89.21
75991;BME280;64673;52.276;10.560;2022-12-18T04:35:35;102304.72;;;-10.22;89.23
75991;BME280;64673;52.276;10.560;2022-12-18T04:38:01;102310.34;;;-10.28;89.14
75991;BME280;64673;52.276;10.560;2022-12-18T04:40:26;102316.91;;;-10.37;88.88
75991;BME280;64673;52.276;10.560;2022-12-18T04:42:51;102310.69;;;-10.20;89.79
75991;BME280;64673;52.276;10.560;2022-12-18T04:45:17;102310.13;;;-10.25;89.99
75991;BME280;64673;52.276;10.560;2022-12-18T04:47:42;102305.75;;;-10.25;89.81
75991;BME280;64673;52.276;10.560;2022-12-18T04:50:07;102309.53;;;-10.16;89.76
75991;BME280;64673;52.276;10.560;2022-12-18T04:52:33;102304.31;;;-10.16;89.69
75991;BME280;64673;52.276;10.560;2022-12-18T04:54:58;102297.06;;;-10.11;89.49
75991;BME280;64673;52.276;10.560;2022-12-18T04:57:23;102305.41;;;-10.19;90.03
75991;BME280;64673;52.276;10.560;2022-12-18T04:59:49;102300.41;;;-10.09;89.51
75991;BME280;64673;52.276;10.560;2022-12-18T05:02:14;102300.69;;;-10.00;89.03
75991;BME280;64673;52.276;10.560;2022-12-18T05:04:40;102298.19;;;-10.01;89.08
75991;BME280;64673;52.276;10.560;2022-12-18T05:07:05;102306.75;;;-9.99;89.01
75991;BME280;64673;52.276;10.560;2022-12-18T05:09:30;102292.47;;;-9.93;89.08
75991;BME280;64673;52.276;10.560;2022-12-18T05:11:55;102292.56;;;-9.95;89.10
75991;BME280;64673;52.276;10.560;2022-12-18T05:14:21;102281.41;;;-10.11;89.71
75991;BME280;64673;52.276;10.560;2022-12-18T05:16:46;102271.63;;;-10.08;89.49
75991;BME280;64673;52.276;10.560;2022-12-18T05:19:11;102274.13;;;-10.06;89.24
75991;BME280;64673;52.276;10.560;2022-12-18T05:21:37;102277.56;;;-9.91;89.29
75991;BME280;64673;52.276;10.560;2022-12-18T05:24:03;102289.88;;;-9.93;89.18
75991;BME280;64673;52.276;10.560;2022-12-18T05:26:28;102289.41;;;-10.00;89.57
75991;BME280;64673;52.276;10.560;2022-12-18T05:28:53;102296.94;;;-9.95;88.99
75991;BME280;64673;52.276;10.560;2022-12-18T05:31:21;102289.97;;;-9.95;88.64
75991;BME280;64673;52.276;10.560;2022-12-18T05:33:47;102293.88;;;-9.88;89.45
75991;BME280;64673;52.276;10.560;2022-12-18T05:36:15;102287.66;;;-9.85;88.33
75991;BME280;64673;52.276;10.560;2022-12-18T05:38:40;102291.47;;;-9.91;89.06
75991;BME280;64673;52.276;10.560;2022-12-18T05:41:07;102290.25;;;-10.00;88.99
75991;BME280;64673;52.276;10.560;2022-12-18T05:43:37;102297.78;;;-9.81;89.12
75991;BME280;64673;52.276;10.560;2022-12-18T05:46:07;102298.00;;;-9.98;88.16
75991;BME280;64673;52.276;10.560;2022-12-18T05:48:33;102294.44;;;-10.11;88.19
75991;BME280;64673;52.276;10.560;2022-12-18T05:51:04;102291.50;;;-10.19;88.93
75991;BME280;64673;52.276;10.560;2022-12-18T05:53:30;102299.22;;;-10.32;89.11
75991;BME280;64673;52.276;10.560;2022-12-18T05:55:59;102300.25;;;-10.34;89.11
75991;BME280;64673;52.276;10.560;2022-12-18T05:58:25;102297.63;;;-10.34;89.54
75991;BME280;64673;52.276;10.560;2022-12-18T06:00:50;102311.81;;;-10.39;89.52
75991;BME280;64673;52.276;10.560;2022-12-18T06:03:15;102317.75;;;-10.37;89.18
75991;BME280;64673;52.276;10.560;2022-12-18T06:05:43;102328.31;;;-10.38;88.99
75991;BME280;64673;52.276;10.560;2022-12-18T06:08:09;102328.19;;;-10.37;89.12
75991;BME280;64673;52.276;10.560;2022-12-18T06:10:35;102330.25;;;-10.42;89.80
75991;BME280;64673;52.276;10.560;2022-12-18T06:13:00;102333.31;;;-10.35;89.32
75991;BME280;64673;52.276;10.560;2022-12-18T06:15:26;102334.34;;;-10.23;89.04
75991;BME280;64673;52.276;10.560;2022-12-18T06:17:51;102344.25;;;-10.28;89.15
75991;BME280;64673;52.276;10.560;2022-12-18T06:20:16;102340.84;;;-10.45;88.74
75991;BME280;64673;52.276;10.560;2022-12-18T06:22:42;102343.25;;;-10.56;88.82
75991;BME280;64673;52.276;10.560;2022-12-18T06:25:08;102342.00;;;-10.64;89.13
75991;BME280;64673;52.276;10.560;2022-12-18T06:27:35;102347.69;;;-10.58;89.29
75991;BME280;64673;52.276;10.560;2022-12-18T06:30:00;102353.44;;;-10.67;88.64
75991;BME280;64673;52.276;10.560;2022-12-18T06:32:26;102359.13;;;-10.90;88.33
75991;BME280;64673;52.276;10.560;2022-12-18T06:34:51;102352.47;;;-10.80;88.69
75991;BME280;64673;52.276;10.560;2022-12-18T06:37:17;102355.44;;;-10.86;89.03
75991;BME280;64673;52.276;10.560;2022-12-18T06:39:42;102355.88;;;-10.94;88.71
75991;BME280;64673;52.276;10.560;2022-12-18T06:42:07;102362.16;;;-10.82;89.45
75991;BME280;64673;52.276;10.560;2022-12-18T06:44:33;102366.84;;;-10.73;89.08
75991;BME280;64673;52.276;10.560;2022-12-18T06:46:58;102355.84;;;-10.78;89.46
75991;BME280;64673;52.276;10.560;2022-12-18T06:49:23;102355.84;;;-10.78;89.65
75991;BME280;64673;52.276;10.560;2022-12-18T06:51:49;102348.06;;;-10.64;90.21
75991;BME280;64673;52.276;10.560;2022-12-18T06:54:14;102349.03;;;-10.51;90.46
75991;BME280;64673;52.276;10.560;2022-12-18T06:56:39;102357.06;;;-10.25;89.50
75991;BME280;64673;52.276;10.560;2022-12-18T06:59:05;102366.19;;;-10.04;90.04
75991;BME280;64673;52.276;10.560;2022-12-18T07:01:30;102366.19;;;-10.04;88.75
75991;BME280;64673;52.276;10.560;2022-12-18T07:03:56;102369.34;;;-10.13;88.97
75991;BME280;64673;52.276;10.560;2022-12-18T07:06:23;102368.06;;;-10.06;88.79
75991;BME280;64673;52.276;10.560;2022-12-18T07:08:50;102373.47;;;-10.09;88.77
75991;BME280;64673;52.276;10.560;2022-12-18T07:11:17;102356.50;;;-10.16;89.07
75991;BME280;64673;52.276;10.560;2022-12-18T07:13:42;102357.56;;;-10.19;89.23
75991;BME280;64673;52.276;10.560;2022-12-18T07:16:10;102361.53;;;-10.13;89.37
75991;BME280;64673;52.276;10.560;2022-12-18T07:18:36;102366.19;;;-10.04;89.22
75991;BME280;64673;52.276;10.560;2022-12-18T07:21:10;102366.41;;;-10.07;88.84
75991;BME280;64673;52.276;10.560;2022-12-18T07:23:36;102377.56;;;-10.05;88.57
75991;BME280;64673;52.276;10.560;2022-12-18T07:26:07;102383.53;;;-10.03;89.20
75991;BME280;64673;52.276;10.560;2022-12-18T07:28:34;102396.03;;;-9.94;88.56
75991;BME280;64673;52.276;10.560;2022-12-18T07:31:08;102396.03;;;-10.08;88.36
75991;BME280;64673;52.276;10.560;2022-12-18T07:33:34;102409.25;;;-10.11;88.23
75991;BME280;64673;52.276;10.560;2022-12-18T07:36:00;102412.44;;;-10.20;88.53
75991;BME280;64673;52.276;10.560;2022-12-18T07:38:25;102420.72;;;-10.28;88.66
75991;BME280;64673;52.276;10.560;2022-12-18T07:40:51;102421.16;;;-10.36;89.35
75991;BME280;64673;52.276;10.560;2022-12-18T07:43:16;102420.38;;;-10.38;88.87
75991;BME280;64673;52.276;10.560;2022-12-18T07:45:42;102426.09;;;-10.31;88.71
75991;BME280;64673;52.276;10.560;2022-12-18T07:48:08;102422.19;;;-10.38;89.00
75991;BME280;64673;52.276;10.560;2022-12-18T07:50:33;102416.91;;;-10.22;89.23
75991;BME280;64673;52.276;10.560;2022-12-18T07:52:59;102429.94;;;-10.22;89.10
75991;BME280;64673;52.276;10.560;2022-12-18T07:55:29;102434.84;;;-10.32;89.41
75991;BME280;64673;52.276;10.560;2022-12-18T07:57:54;102439.22;;;-10.32;89.79
75991;BME280;64673;52.276;10.560;2022-12-18T08:00:19;102445.19;;;-10.16;88.92
75991;BME280;64673;52.276;10.560;2022-12-18T08:02:45;102451.75;;;-10.09;88.03
75991;BME280;64673;52.276;10.560;2022-12-18T08:05:10;102453.72;;;-9.99;88.83
75991;BME280;64673;52.276;10.560;2022-12-18T08:07:35;102443.84;;;-9.93;88.88
75991;BME280;64673;52.276;10.560;2022-12-18T08:10:01;102441.72;;;-9.87;89.29
75991;BME280;64673;52.276;10.560;2022-12-18T08:12:26;102441.09;;;-9.76;88.69
75991;BME280;64673;52.276;10.560;2022-12-18T08:14:51;102448.06;;;-9.63;89.03
75991;BME280;64673;52.276;10.560;2022-12-18T08:17:16;102441.75;;;-9.58;88.75
75991;BME280;64673;52.276;10.560;2022-12-18T08:19:42;102432.78;;;-9.54;89.42
75991;BME280;64673;52.276;10.560;2022-12-18T08:22:07;102423.91;;;-9.38;88.55
75991;BME280;64673;52.276;10.560;2022-12-18T08:24:32;102408.69;;;-9.31;88.84
75991;BME280;64673;52.276;10.560;2022-12-18T08:26:58;102410.94;;;-9.25;88.80
75991;BME280;64673;52.276;10.560;2022-12-18T08:29:23;102400.56;;;-9.27;89.65
75991;BME280;64673;52.276;10.560;2022-12-18T08:31:48;102397.69;;;-9.22;88.53
75991;BME280;64673;52.276;10.560;2022-12-18T08:34:14;102393.72;;;-9.15;88.55
75991;BME280;64673;52.276;10.560;2022-12-18T08:36:39;102400.00;;;-9.17;88.30
75991;BME280;64673;52.276;10.560;2022-12-18T08:39:05;102398.56;;;-9.09;88.74
75991;BME280;64673;52.276;10.560;2022-12-18T08:41:30;102390.44;;;-9.04;88.47
75991;BME280;64673;52.276;10.560;2022-12-18T08:43:55;102391.28;;;-9.04;88.13
75991;BME280;64673;52.276;10.560;2022-12-18T08:46:42;102394.81;;;-9.05;89.37
75991;BME280;64673;52.276;10.560;2022-12-18T08:49:09;102392.03;;;-9.02;88.46
75991;BME280;64673;52.276;10.560;2022-12-18T08:51:35;102394.53;;;-9.00;88.62
75991;BME280;64673;52.276;10.560;2022-12-18T08:54:01;102389.94;;;-8.97;88.28
75991;BME280;64673;52.276;10.560;2022-12-18T08:56:27;102383.25;;;-9.01;88.88
75991;BME280;64673;52.276;10.560;2022-12-18T08:58:54;102390.88;;;-8.98;89.10
75991;BME280;64673;52.276;10.560;2022-12-18T09:01:20;102394.66;;;-8.89;88.92
75991;BME280;64673;52.276;10.560;2022-12-18T09:03:47;102399.28;;;-8.93;88.91
75991;BME280;64673;52.276;10.560;2022-12-18T09:06:17;102393.81;;;-8.90;88.23
75991;BME280;64673;52.276;10.560;2022-12-18T09:08:43;102381.72;;;-8.91;88.94
75991;BME280;64673;52.276;10.560;2022-12-18T09:11:23;102383.75;;;-8.81;89.13
75991;BME280;64673;52.276;10.560;2022-12-18T09:13:49;102377.91;;;-8.72;88.83
75991;BME280;64673;52.276;10.560;2022-12-18T09:16:15;102373.94;;;-8.65;88.20
75991;BME280;64673;52.276;10.560;2022-12-18T09:18:40;102368.66;;;-8.51;88.85
75991;BME280;64673;52.276;10.560;2022-12-18T09:21:11;102367.38;;;-8.45;88.80
75991;BME280;64673;52.276;10.560;2022-12-18T09:23:37;102368.78;;;-8.40;88.80
75991;BME280;64673;52.276;10.560;2022-12-18T09:26:02;102368.44;;;-8.35;89.21
75991;BME280;64673;52.276;10.560;2022-12-18T09:28:28;102363.94;;;-8.21;88.63
75991;BME280;64673;52.276;10.560;2022-12-18T09:30:53;102356.59;;;-8.16;89.16
75991;BME280;64673;52.276;10.560;2022-12-18T09:33:18;102348.16;;;-8.06;88.67
75991;BME280;64673;52.276;10.560;2022-12-18T09:35:45;102348.56;;;-8.00;88.50
75991;BME280;64673;52.276;10.560;2022-12-18T09:38:14;102351.47;;;-7.92;89.13
75991;BME280;64673;52.276;10.560;2022-12-18T09:40:45;102343.41;;;-7.76;89.43
75991;BME280;64673;52.276;10.560;2022-12-18T09:43:28;102356.06;;;-7.70;88.84
75991;BME280;64673;52.276;10.560;2022-12-18T09:45:59;102352.50;;;-7.69;88.34
75991;BME280;64673;52.276;10.560;2022-12-18T09:48:39;102348.50;;;-7.62;89.33
75991;BME280;64673;52.276;10.560;2022-12-18T09:51:18;102337.59;;;-7.56;89.07
75991;BME280;64673;52.276;10.560;2022-12-18T09:53:47;102330.84;;;-7.47;88.47
75991;BME280;64673;52.276;10.560;2022-12-18T09:56:18;102329.25;;;-7.37;88.44
75991;BME280;64673;52.276;10.560;2022-12-18T09:59:03;102327.75;;;-7.28;89.14
75991;BME280;64673;52.276;10.560;2022-12-18T10:01:30;102325.03;;;-7.27;88.70
75991;BME280;64673;52.276;10.560;2022-12-18T10:03:56;102331.63;;;-7.21;88.61
75991;BME280;64673;52.276;10.560;2022-12-18T10:12:06;102344.03;;;-6.88;88.94
75991;BME280;64673;52.276;10.560;2022-12-18T10:14:40;102336.91;;;-6.86;88.55
75991;BME280;64673;52.276;10.560;2022-12-18T10:19:52;102344.06;;;-6.53;88.36
75991;BME280;64673;52.276;10.560;2022-12-18T10:23:00;102346.34;;;-6.49;88.29
75991;BME280;64673;52.276;10.560;2022-12-18T10:25:41;102352.81;;;-6.42;88.72
75991;BME280;64673;52.276;10.560;2022-12-18T10:28:12;102375.19;;;-6.25;88.23
75991;BME280;64673;52.276;10.560;2022-12-18T10:30:39;102371.13;;;-6.18;88.27
75991;BME280;64673;52.276;10.560;2022-12-18T10:33:04;102382.38;;;-6.05;87.50
75991;BME280;64673;52.276;10.560;2022-12-18T10:35:29;102382.63;;;-5.97;87.31
75991;BME280;64673;52.276;10.560;2022-12-18T10:40:29;102360.63;;;-5.62;87.00
75991;BME280;64673;52.276;10.560;2022-12-18T10:43:05;102362.78;;;-5.67;87.08
75991;BME280;64673;52.276;10.560;2022-12-18T10:45:30;102359.41;;;-5.69;87.20
75991;BME280;64673;52.276;10.560;2022-12-18T10:47:56;102360.16;;;-5.67;87.22
75991;BME280;64673;52.276;10.560;2022-12-18T10:50:36;102358.97;;;-5.63;87.16
75991;BME280;64673;52.276;10.560;2022-12-18T10:53:04;102354.88;;;-5.56;87.06
75991;BME280;64673;52.276;10.560;2022-12-18T10:55:38;102335.31;;;-5.52;87.45
75991;BME280;64673;52.276;10.560;2022-12-18T10:58:16;102334.34;;;-5.51;87.70
75991;BME280;64673;52.276;10.560;2022-12-18T11:00:42;102336.59;;;-5.46;86.92
75991;BME280;64673;52.276;10.560;2022-12-18T11:06:16;102329.28;;;-5.32;87.77
75991;BME280;64673;52.276;10.560;2022-12-18T11:08:46;102318.97;;;-5.24;87.28
75991;BME280;64673;52.276;10.560;2022-12-18T11:11:23;102320.97;;;-5.16;87.34
75991;BME280;64673;52.276;10.560;2022-12-18T11:14:00;102318.94;;;-5.12;87.91
75991;BME280;64673;52.276;10.560;2022-12-18T11:16:27;102318.19;;;-5.03;87.31
75991;BME280;64673;52.276;10.560;2022-12-18T11:18:53;102310.19;;;-5.02;87.86
75991;BME280;64673;52.276;10.560;2022-12-18T11:21:19;102307.75;;;-4.94;88.26
75991;BME280;64673;52.276;10.560;2022-12-18T11:23:49;102305.00;;;-4.92;87.10
75991;BME280;64673;52.276;10.560;2022-12-18T11:26:15;102301.41;;;-4.91;87.34
75991;BME280;64673;52.276;10.560;2022-12-18T11:33:42;102295.41;;;-4.61;86.05
75991;BME280;64673;52.276;10.560;2022-12-18T11:36:10;102295.03;;;-4.57;85.83
75991;BME280;64673;52.276;10.560;2022-12-18T11:38:40;102283.84;;;-4.49;85.40
75991;BME280;64673;52.276;10.560;2022-12-18T11:44:11;102296.09;;;-4.38;86.64
75991;BME280;64673;52.276;10.560;2022-12-18T11:47:08;102298.41;;;-4.24;85.87
75991;BME280;64673;52.276;10.560;2022-12-18T11:49:40;102305.31;;;-4.23;85.61
75991;BME280;64673;52.276;10.560;2022-12-18T11:52:19;102311.59;;;-4.24;85.23
75991;BME280;64673;52.276;10.560;2022-12-18T11:54:55;102306.03;;;-4.21;85.94
75991;BME280;64673;52.276;10.560;2022-12-18T12:08:29;102289.31;;;-3.71;84.70
75991;BME280;64673;52.276;10.560;2022-12-18T12:11:00;102282.69;;;-3.65;83.94
75991;BME280;64673;52.276;10.560;2022-12-18T12:13:59;102272.84;;;-3.63;85.49
75991;BME280;64673;52.276;10.560;2022-12-18T12:19:43;102273.44;;;-3.50;84.76
75991;BME280;64673;52.276;10.560;2022-12-18T12:24:51;102249.97;;;-3.43;84.20
75991;BME280;64673;52.276;10.560;2022-12-18T12:28:24;102255.53;;;-3.27;84.12
75991;BME280;64673;52.276;10.560;2022-12-18T12:30:20;102237.91;;;-3.26;83.48
75991;BME280;64673;52.276;10.560;2022-12-18T12:36:03;102236.94;;;-3.25;84.36
75991;BME280;64673;52.276;10.560;2022-12-18T12:38:37;102228.34;;;-3.18;83.36
75991;BME280;64673;52.276;10.560;2022-12-18T12:41:08;102223.06;;;-3.18;84.29
75991;BME280;64673;52.276;10.560;2022-12-18T12:43:57;102224.31;;;-3.12;83.62
75991;BME280;64673;52.276;10.560;2022-12-18T12:46:23;102220.69;;;-3.11;83.57
75991;BME280;64673;52.276;10.560;2022-12-18T12:51:23;102217.09;;;-3.10;83.89
75991;BME280;64673;52.276;10.560;2022-12-18T12:53:49;102213.75;;;-3.22;84.14
75991;BME280;64673;52.276;10.560;2022-12-18T12:56:18;102213.75;;;-3.22;85.13
75991;BME280;64673;52.276;10.560;2022-12-18T12:59:13;102208.47;;;-3.12;83.81
75991;BME280;64673;52.276;10.560;2022-12-18T13:02:00;102197.22;;;-3.14;84.58
75991;BME280;64673;52.276;10.560;2022-12-18T13:04:42;102193.88;;;-3.16;85.51
75991;BME280;64673;52.276;10.560;2022-12-18T13:07:26;102196.13;;;-3.12;84.32
75991;BME280;64673;52.276;10.560;2022-12-18T13:15:36;102191.09;;;-3.15;84.73
75991;BME280;64673;52.276;10.560;2022-12-18T13:25:48;102157.13;;;-3.18;85.44
75991;BME280;64673;52.276;10.560;2022-12-18T13:28:15;102154.75;;;-3.21;86.22
75991;BME280;64673;52.276;10.560;2022-12-18T13:46:24;102170.00;;;-3.15;82.38
75991;BME280;64673;52.276;10.560;2022-12-18T13:51:19;102166.97;;;-3.20;81.63
75991;BME280;64673;52.276;10.560;2022-12-18T13:53:53;102168.47;;;-3.27;80.82
75991;BME280;64673;52.276;10.560;2022-12-18T13:56:27;102169.31;;;-3.36;81.00
75991;BME280;64673;52.276;10.560;2022-12-18T14:01:30;102165.44;;;-3.51;82.75
75991;BME280;64673;52.276;10.560;2022-12-18T14:04:17;102172.66;;;-3.53;82.57
75991;BME280;64673;52.276;10.560;2022-12-18T14:06:52;102176.00;;;-3.61;82.23
75991;BME280;64673;52.276;10.560;2022-12-18T14:09:27;102180.56;;;-3.73;83.04
75991;BME280;64673;52.276;10.560;2022-12-18T14:11:54;102175.81;;;-3.79;82.73
75991;BME280;64673;52.276;10.560;2022-12-18T14:14:45;102179.84;;;-3.75;82.21
75991;BME280;64673;52.276;10.560;2022-12-18T14:17:13;102176.91;;;-3.81;82.73
75991;BME280;64673;52.276;10.560;2022-12-18T14:19:47;102172.34;;;-3.89;83.08
75991;BME280;64673;52.276;10.560;2022-12-18T14:22:19;102173.00;;;-3.96;82.95
75991;BME280;64673;52.276;10.560;2022-12-18T14:24:46;102175.38;;;-4.03;82.74
75991;BME280;64673;52.276;10.560;2022-12-18T14:27:20;102166.56;;;-4.13;82.34
75991;BME280;64673;52.276;10.560;2022-12-18T14:29:46;102172.16;;;-4.07;82.17
75991;BME280;64673;52.276;10.560;2022-12-18T14:32:16;102172.84;;;-4.14;82.40
75991;BME280;64673;52.276;10.560;2022-12-18T14:34:52;102161.84;;;-4.19;82.96
75991;BME280;64673;52.276;10.560;2022-12-18T14:37:23;102160.44;;;-4.23;83.51
75991;BME280;64673;52.276;10.560;2022-12-18T14:40:00;102156.44;;;-4.27;83.71
75991;BME280;64673;52.276;10.560;2022-12-18T14:42:26;102167.63;;;-4.35;83.62